Terminal Aerodrome Forecast
Issued by NWS Cleveland, OH

Home | Current Version | Previous Version | Graphics & Text | Print | Product List | Glossary On
Versions: 1 2 3 4 5 6 7 8 9 10 11 12 13 14
000
FTUS41 KCLE 051136
TAFCAK
TAF
KCAK 051136Z 0512/0612 29007KT P6SM SCT025
      TEMPO 0512/0513 BKN025
     FM051500 30007KT P6SM SKC
     FM051700 27007KT P6SM BKN060
     FM052300 21004KT P6SM OVC120=

USA.gov is the U.S. government's official web portal to all federal, state and local government web resources and services.